Ash Ridge, Ohio
Current Conditions -  °F | °C
As of 12:35 AM on Tuesday 27 Jan 2015 (Local Time) from KFGX Reporting Station
Overcast Overcast  
Wind Chill: 15°   Ceiling: 2800
Heat Index: 21°   Visibility: 10mi
Dew Point: 18°   Wind: 5mph
Humidity: 86%   Direction: 70°ENE
Pressure: 29.94"   Gusts: NA
Location:  38.8698°N, 83.9081°W
Report Text: KFGX 270535Z AUTO 07004KT 10SM BKN028 OVC070 M06/M08 A2994 RMK AO2 T10601080
Loading
Personal Weather Stations






























Interactive Weather Map New forecast layout! Learn more

10-Day Weather Forecast

Advertisements
Track Severe Weather on mobile